sensor_id;sensor_type;location;lat;lon;timestamp;P1;durP1;ratioP1;P2;durP2;ratioP2
26965;SDS011;14522;52.068;4.414;2023-02-15T00:01:31;24.25;;;12.70;;
26965;SDS011;14522;52.068;4.414;2023-02-15T00:03:57;35.40;;;14.20;;
26965;SDS011;14522;52.068;4.414;2023-02-15T00:06:24;29.08;;;14.32;;
26965;SDS011;14522;52.068;4.414;2023-02-15T00:08:50;27.80;;;13.80;;
26965;SDS011;14522;52.068;4.414;2023-02-15T00:11:17;21.65;;;14.68;;
26965;SDS011;14522;52.068;4.414;2023-02-15T00:14:04;18.05;;;12.68;;
26965;SDS011;14522;52.068;4.414;2023-02-15T00:16:31;30.10;;;13.45;;
26965;SDS011;14522;52.068;4.414;2023-02-15T00:18:58;21.73;;;13.80;;
26965;SDS011;14522;52.068;4.414;2023-02-15T00:21:28;17.27;;;11.73;;
26965;SDS011;14522;52.068;4.414;2023-02-15T00:23:56;16.48;;;12.25;;
26965;SDS011;14522;52.068;4.414;2023-02-15T00:26:23;19.85;;;13.38;;
26965;SDS011;14522;52.068;4.414;2023-02-15T00:28:49;26.00;;;15.98;;
26965;SDS011;14522;52.068;4.414;2023-02-15T00:31:16;31.35;;;17.35;;
26965;SDS011;14522;52.068;4.414;2023-02-15T00:33:42;25.85;;;17.95;;
26965;SDS011;14522;52.068;4.414;2023-02-15T00:36:09;26.08;;;16.20;;
26965;SDS011;14522;52.068;4.414;2023-02-15T00:38:36;25.35;;;16.27;;
26965;SDS011;14522;52.068;4.414;2023-02-15T00:41:03;26.10;;;16.95;;
26965;SDS011;14522;52.068;4.414;2023-02-15T00:43:31;30.75;;;18.45;;
26965;SDS011;14522;52.068;4.414;2023-02-15T00:45:57;28.48;;;16.92;;
26965;SDS011;14522;52.068;4.414;2023-02-15T00:48:24;27.35;;;17.08;;
26965;SDS011;14522;52.068;4.414;2023-02-15T00:50:55;24.17;;;16.60;;
26965;SDS011;14522;52.068;4.414;2023-02-15T00:53:22;23.48;;;15.68;;
26965;SDS011;14522;52.068;4.414;2023-02-15T00:55:48;23.10;;;15.27;;
26965;SDS011;14522;52.068;4.414;2023-02-15T00:58:14;22.30;;;14.05;;
26965;SDS011;14522;52.068;4.414;2023-02-15T01:00:42;20.67;;;14.20;;
26965;SDS011;14522;52.068;4.414;2023-02-15T01:03:09;18.52;;;13.77;;
26965;SDS011;14522;52.068;4.414;2023-02-15T01:05:36;17.98;;;12.48;;
26965;SDS011;14522;52.068;4.414;2023-02-15T01:08:03;15.98;;;12.73;;
26965;SDS011;14522;52.068;4.414;2023-02-15T01:10:29;16.08;;;11.88;;
26965;SDS011;14522;52.068;4.414;2023-02-15T01:12:56;15.57;;;10.88;;
26965;SDS011;14522;52.068;4.414;2023-02-15T01:15:22;16.70;;;11.68;;
26965;SDS011;14522;52.068;4.414;2023-02-15T01:17:49;16.40;;;11.38;;
26965;SDS011;14522;52.068;4.414;2023-02-15T01:20:19;16.83;;;12.13;;
26965;SDS011;14522;52.068;4.414;2023-02-15T01:22:46;16.60;;;11.10;;
26965;SDS011;14522;52.068;4.414;2023-02-15T01:25:12;18.00;;;11.93;;
26965;SDS011;14522;52.068;4.414;2023-02-15T01:27:39;14.73;;;11.02;;
26965;SDS011;14522;52.068;4.414;2023-02-15T01:30:05;14.15;;;10.35;;
26965;SDS011;14522;52.068;4.414;2023-02-15T01:32:33;15.00;;;10.65;;
26965;SDS011;14522;52.068;4.414;2023-02-15T01:34:59;17.52;;;11.63;;
26965;SDS011;14522;52.068;4.414;2023-02-15T01:37:25;15.55;;;11.77;;
26965;SDS011;14522;52.068;4.414;2023-02-15T01:39:52;15.73;;;10.98;;
26965;SDS011;14522;52.068;4.414;2023-02-15T01:42:24;16.67;;;11.95;;
26965;SDS011;14522;52.068;4.414;2023-02-15T01:44:54;13.80;;;10.85;;
26965;SDS011;14522;52.068;4.414;2023-02-15T01:47:33;15.10;;;10.57;;
26965;SDS011;14522;52.068;4.414;2023-02-15T01:52:49;13.38;;;9.70;;
26965;SDS011;14522;52.068;4.414;2023-02-15T01:55:17;13.93;;;10.30;;
26965;SDS011;14522;52.068;4.414;2023-02-15T01:57:44;12.10;;;9.50;;
26965;SDS011;14522;52.068;4.414;2023-02-15T02:00:11;14.63;;;10.10;;
26965;SDS011;14522;52.068;4.414;2023-02-15T02:02:39;18.55;;;10.85;;
26965;SDS011;14522;52.068;4.414;2023-02-15T02:05:06;13.93;;;9.98;;
26965;SDS011;14522;52.068;4.414;2023-02-15T02:07:34;12.60;;;9.07;;
26965;SDS011;14522;52.068;4.414;2023-02-15T02:10:01;10.65;;;9.40;;
26965;SDS011;14522;52.068;4.414;2023-02-15T02:12:28;10.73;;;8.88;;
26965;SDS011;14522;52.068;4.414;2023-02-15T02:14:54;10.73;;;8.60;;
26965;SDS011;14522;52.068;4.414;2023-02-15T02:17:28;8.60;;;7.40;;
26965;SDS011;14522;52.068;4.414;2023-02-15T02:20:44;12.57;;;8.73;;
26965;SDS011;14522;52.068;4.414;2023-02-15T02:38:13;8.48;;;7.50;;
26965;SDS011;14522;52.068;4.414;2023-02-15T02:43:18;11.07;;;7.95;;
26965;SDS011;14522;52.068;4.414;2023-02-15T02:45:54;10.70;;;8.02;;
26965;SDS011;14522;52.068;4.414;2023-02-15T02:48:24;12.07;;;8.98;;
26965;SDS011;14522;52.068;4.414;2023-02-15T02:50:51;11.65;;;8.60;;
26965;SDS011;14522;52.068;4.414;2023-02-15T02:53:18;10.23;;;8.02;;
26965;SDS011;14522;52.068;4.414;2023-02-15T02:55:45;10.60;;;7.70;;
26965;SDS011;14522;52.068;4.414;2023-02-15T03:00:46;8.32;;;7.32;;
26965;SDS011;14522;52.068;4.414;2023-02-15T03:03:49;8.45;;;7.57;;
26965;SDS011;14522;52.068;4.414;2023-02-15T03:06:27;10.52;;;7.82;;
26965;SDS011;14522;52.068;4.414;2023-02-15T03:08:58;12.70;;;9.90;;
26965;SDS011;14522;52.068;4.414;2023-02-15T03:11:26;11.68;;;8.95;;
26965;SDS011;14522;52.068;4.414;2023-02-15T03:13:53;13.23;;;9.38;;
26965;SDS011;14522;52.068;4.414;2023-02-15T03:16:19;17.10;;;9.70;;
26965;SDS011;14522;52.068;4.414;2023-02-15T03:19:02;15.43;;;8.45;;
26965;SDS011;14522;52.068;4.414;2023-02-15T03:21:31;18.42;;;10.00;;
26965;SDS011;14522;52.068;4.414;2023-02-15T03:24:09;18.92;;;10.15;;
26965;SDS011;14522;52.068;4.414;2023-02-15T03:26:37;14.00;;;10.52;;
26965;SDS011;14522;52.068;4.414;2023-02-15T03:29:03;12.82;;;9.57;;
26965;SDS011;14522;52.068;4.414;2023-02-15T03:31:32;12.68;;;9.13;;
26965;SDS011;14522;52.068;4.414;2023-02-15T03:34:01;15.73;;;9.88;;
26965;SDS011;14522;52.068;4.414;2023-02-15T03:36:30;10.52;;;8.52;;
26965;SDS011;14522;52.068;4.414;2023-02-15T03:41:44;9.35;;;8.15;;
26965;SDS011;14522;52.068;4.414;2023-02-15T03:44:18;9.13;;;8.13;;
26965;SDS011;14522;52.068;4.414;2023-02-15T03:46:51;8.65;;;7.72;;
26965;SDS011;14522;52.068;4.414;2023-02-15T03:49:24;9.15;;;7.38;;
26965;SDS011;14522;52.068;4.414;2023-02-15T03:51:53;8.05;;;7.25;;
26965;SDS011;14522;52.068;4.414;2023-02-15T03:54:28;8.10;;;7.25;;
26965;SDS011;14522;52.068;4.414;2023-02-15T03:57:20;8.20;;;7.40;;
26965;SDS011;14522;52.068;4.414;2023-02-15T04:00:09;8.90;;;8.00;;
26965;SDS011;14522;52.068;4.414;2023-02-15T04:03:00;8.20;;;6.82;;
26965;SDS011;14522;52.068;4.414;2023-02-15T04:05:29;7.25;;;6.55;;
26965;SDS011;14522;52.068;4.414;2023-02-15T04:07:56;8.50;;;7.55;;
26965;SDS011;14522;52.068;4.414;2023-02-15T04:10:22;9.05;;;7.32;;
26965;SDS011;14522;52.068;4.414;2023-02-15T04:13:07;8.75;;;7.72;;
26965;SDS011;14522;52.068;4.414;2023-02-15T04:15:33;6.80;;;6.13;;
26965;SDS011;14522;52.068;4.414;2023-02-15T04:18:18;6.68;;;6.03;;
26965;SDS011;14522;52.068;4.414;2023-02-15T04:20:45;8.88;;;7.22;;
26965;SDS011;14522;52.068;4.414;2023-02-15T04:23:30;7.47;;;6.67;;
26965;SDS011;14522;52.068;4.414;2023-02-15T04:26:15;8.00;;;7.17;;
26965;SDS011;14522;52.068;4.414;2023-02-15T04:28:42;8.75;;;7.20;;
26965;SDS011;14522;52.068;4.414;2023-02-15T04:31:08;7.55;;;6.55;;
26965;SDS011;14522;52.068;4.414;2023-02-15T04:33:35;7.03;;;6.15;;
26965;SDS011;14522;52.068;4.414;2023-02-15T04:36:02;6.75;;;6.15;;
26965;SDS011;14522;52.068;4.414;2023-02-15T04:38:29;7.85;;;7.05;;
26965;SDS011;14522;52.068;4.414;2023-02-15T04:40:55;6.82;;;6.13;;
26965;SDS011;14522;52.068;4.414;2023-02-15T04:43:22;7.82;;;6.40;;
26965;SDS011;14522;52.068;4.414;2023-02-15T04:45:48;8.23;;;7.32;;
26965;SDS011;14522;52.068;4.414;2023-02-15T04:48:16;8.20;;;7.30;;
26965;SDS011;14522;52.068;4.414;2023-02-15T04:50:43;6.75;;;6.15;;
26965;SDS011;14522;52.068;4.414;2023-02-15T04:53:10;7.53;;;6.70;;
26965;SDS011;14522;52.068;4.414;2023-02-15T04:55:37;7.95;;;7.13;;
26965;SDS011;14522;52.068;4.414;2023-02-15T04:58:03;9.45;;;6.63;;
26965;SDS011;14522;52.068;4.414;2023-02-15T05:00:30;7.53;;;6.75;;
26965;SDS011;14522;52.068;4.414;2023-02-15T05:02:56;7.82;;;6.60;;
26965;SDS011;14522;52.068;4.414;2023-02-15T05:05:22;6.70;;;6.10;;
26965;SDS011;14522;52.068;4.414;2023-02-15T05:07:49;5.90;;;5.18;;
26965;SDS011;14522;52.068;4.414;2023-02-15T05:10:15;6.80;;;6.13;;
26965;SDS011;14522;52.068;4.414;2023-02-15T05:12:42;6.50;;;5.82;;
26965;SDS011;14522;52.068;4.414;2023-02-15T05:15:08;7.03;;;6.32;;
26965;SDS011;14522;52.068;4.414;2023-02-15T05:17:35;7.30;;;6.60;;
26965;SDS011;14522;52.068;4.414;2023-02-15T05:20:01;6.78;;;5.55;;
26965;SDS011;14522;52.068;4.414;2023-02-15T05:22:28;7.80;;;6.53;;
26965;SDS011;14522;52.068;4.414;2023-02-15T05:24:54;7.28;;;6.45;;
26965;SDS011;14522;52.068;4.414;2023-02-15T05:27:39;9.43;;;6.97;;
26965;SDS011;14522;52.068;4.414;2023-02-15T05:30:24;8.82;;;6.80;;
26965;SDS011;14522;52.068;4.414;2023-02-15T05:32:51;8.73;;;6.68;;
26965;SDS011;14522;52.068;4.414;2023-02-15T05:35:17;8.40;;;5.93;;
26965;SDS011;14522;52.068;4.414;2023-02-15T05:37:44;8.80;;;7.22;;
26965;SDS011;14522;52.068;4.414;2023-02-15T05:40:10;11.35;;;7.68;;
26965;SDS011;14522;52.068;4.414;2023-02-15T05:42:37;6.78;;;5.90;;
26965;SDS011;14522;52.068;4.414;2023-02-15T05:45:03;9.52;;;7.70;;
26965;SDS011;14522;52.068;4.414;2023-02-15T05:47:30;8.90;;;7.05;;
26965;SDS011;14522;52.068;4.414;2023-02-15T05:49:56;8.43;;;6.85;;
26965;SDS011;14522;52.068;4.414;2023-02-15T05:52:22;10.43;;;6.95;;
26965;SDS011;14522;52.068;4.414;2023-02-15T05:54:49;9.15;;;6.90;;
26965;SDS011;14522;52.068;4.414;2023-02-15T05:57:15;8.75;;;7.28;;
26965;SDS011;14522;52.068;4.414;2023-02-15T05:59:42;12.77;;;7.68;;
26965;SDS011;14522;52.068;4.414;2023-02-15T06:02:08;11.93;;;7.97;;
26965;SDS011;14522;52.068;4.414;2023-02-15T06:04:35;12.05;;;8.15;;
26965;SDS011;14522;52.068;4.414;2023-02-15T06:07:01;11.25;;;7.63;;
26965;SDS011;14522;52.068;4.414;2023-02-15T06:09:27;12.70;;;8.20;;
26965;SDS011;14522;52.068;4.414;2023-02-15T06:11:54;11.45;;;7.95;;
26965;SDS011;14522;52.068;4.414;2023-02-15T06:14:20;12.00;;;8.48;;
26965;SDS011;14522;52.068;4.414;2023-02-15T06:16:47;9.10;;;7.65;;
26965;SDS011;14522;52.068;4.414;2023-02-15T06:19:13;7.65;;;6.88;;
26965;SDS011;14522;52.068;4.414;2023-02-15T06:21:39;12.27;;;8.13;;
26965;SDS011;14522;52.068;4.414;2023-02-15T06:24:08;12.20;;;8.35;;
26965;SDS011;14522;52.068;4.414;2023-02-15T06:26:34;9.05;;;7.05;;
26965;SDS011;14522;52.068;4.414;2023-02-15T06:29:00;11.73;;;7.45;;
26965;SDS011;14522;52.068;4.414;2023-02-15T06:31:27;9.85;;;7.60;;
26965;SDS011;14522;52.068;4.414;2023-02-15T06:33:54;10.55;;;6.82;;
26965;SDS011;14522;52.068;4.414;2023-02-15T06:36:27;9.55;;;6.38;;
26965;SDS011;14522;52.068;4.414;2023-02-15T06:38:54;11.75;;;8.20;;
26965;SDS011;14522;52.068;4.414;2023-02-15T06:41:21;11.75;;;8.45;;
26965;SDS011;14522;52.068;4.414;2023-02-15T06:43:47;9.68;;;6.97;;
26965;SDS011;14522;52.068;4.414;2023-02-15T06:46:14;10.20;;;7.53;;
26965;SDS011;14522;52.068;4.414;2023-02-15T06:48:40;11.38;;;8.57;;
26965;SDS011;14522;52.068;4.414;2023-02-15T06:51:07;16.05;;;9.35;;
26965;SDS011;14522;52.068;4.414;2023-02-15T06:53:33;9.93;;;7.18;;
26965;SDS011;14522;52.068;4.414;2023-02-15T06:56:03;13.18;;;8.75;;
26965;SDS011;14522;52.068;4.414;2023-02-15T06:58:32;12.25;;;8.70;;
26965;SDS011;14522;52.068;4.414;2023-02-15T07:00:59;12.30;;;8.88;;
26965;SDS011;14522;52.068;4.414;2023-02-15T07:03:25;11.60;;;8.60;;
26965;SDS011;14522;52.068;4.414;2023-02-15T07:05:55;9.40;;;7.25;;
26965;SDS011;14522;52.068;4.414;2023-02-15T07:08:22;11.07;;;7.85;;
26965;SDS011;14522;52.068;4.414;2023-02-15T07:10:52;10.43;;;7.53;;
26965;SDS011;14522;52.068;4.414;2023-02-15T07:13:19;11.90;;;8.65;;
26965;SDS011;14522;52.068;4.414;2023-02-15T07:15:47;8.77;;;6.75;;
26965;SDS011;14522;52.068;4.414;2023-02-15T07:18:14;8.57;;;6.80;;
26965;SDS011;14522;52.068;4.414;2023-02-15T07:20:40;9.38;;;6.30;;
26965;SDS011;14522;52.068;4.414;2023-02-15T07:23:08;9.73;;;6.95;;
26965;SDS011;14522;52.068;4.414;2023-02-15T07:25:34;10.63;;;7.18;;
26965;SDS011;14522;52.068;4.414;2023-02-15T07:28:01;9.43;;;6.93;;
26965;SDS011;14522;52.068;4.414;2023-02-15T07:30:28;12.23;;;8.52;;
26965;SDS011;14522;52.068;4.414;2023-02-15T07:32:55;17.85;;;9.93;;
26965;SDS011;14522;52.068;4.414;2023-02-15T07:35:50;14.55;;;9.55;;
26965;SDS011;14522;52.068;4.414;2023-02-15T07:38:17;10.07;;;7.07;;
26965;SDS011;14522;52.068;4.414;2023-02-15T07:40:44;21.02;;;12.43;;
26965;SDS011;14522;52.068;4.414;2023-02-15T07:43:11;25.42;;;14.05;;
26965;SDS011;14522;52.068;4.414;2023-02-15T07:45:38;19.67;;;11.43;;
26965;SDS011;14522;52.068;4.414;2023-02-15T07:48:05;27.10;;;15.95;;
26965;SDS011;14522;52.068;4.414;2023-02-15T07:50:31;19.13;;;12.25;;
26965;SDS011;14522;52.068;4.414;2023-02-15T07:52:58;23.50;;;14.60;;
26965;SDS011;14522;52.068;4.414;2023-02-15T07:55:24;24.45;;;14.07;;
26965;SDS011;14522;52.068;4.414;2023-02-15T07:57:51;29.60;;;16.55;;
26965;SDS011;14522;52.068;4.414;2023-02-15T08:00:18;29.67;;;15.25;;
26965;SDS011;14522;52.068;4.414;2023-02-15T08:02:49;25.08;;;15.00;;
26965;SDS011;14522;52.068;4.414;2023-02-15T08:05:42;26.50;;;15.55;;
26965;SDS011;14522;52.068;4.414;2023-02-15T08:08:11;29.45;;;16.15;;
26965;SDS011;14522;52.068;4.414;2023-02-15T08:13:45;29.60;;;17.90;;
26965;SDS011;14522;52.068;4.414;2023-02-15T08:16:24;31.67;;;17.55;;
26965;SDS011;14522;52.068;4.414;2023-02-15T08:18:51;26.00;;;15.32;;
26965;SDS011;14522;52.068;4.414;2023-02-15T08:21:18;33.05;;;20.48;;
26965;SDS011;14522;52.068;4.414;2023-02-15T08:23:45;26.05;;;15.65;;
26965;SDS011;14522;52.068;4.414;2023-02-15T08:26:11;26.00;;;15.73;;
26965;SDS011;14522;52.068;4.414;2023-02-15T08:28:38;34.08;;;17.83;;
26965;SDS011;14522;52.068;4.414;2023-02-15T08:31:06;36.25;;;20.98;;
26965;SDS011;14522;52.068;4.414;2023-02-15T08:33:32;35.55;;;21.42;;
26965;SDS011;14522;52.068;4.414;2023-02-15T08:36:03;27.98;;;16.75;;
26965;SDS011;14522;52.068;4.414;2023-02-15T08:38:29;29.67;;;17.52;;
26965;SDS011;14522;52.068;4.414;2023-02-15T08:41:08;36.45;;;21.77;;
26965;SDS011;14522;52.068;4.414;2023-02-15T08:43:35;29.20;;;17.70;;
26965;SDS011;14522;52.068;4.414;2023-02-15T08:46:01;29.10;;;17.67;;
26965;SDS011;14522;52.068;4.414;2023-02-15T08:48:28;32.05;;;19.00;;
26965;SDS011;14522;52.068;4.414;2023-02-15T08:50:54;31.23;;;17.92;;
26965;SDS011;14522;52.068;4.414;2023-02-15T08:53:20;36.67;;;20.27;;
26965;SDS011;14522;52.068;4.414;2023-02-15T08:55:54;41.40;;;22.52;;
26965;SDS011;14522;52.068;4.414;2023-02-15T08:58:21;33.45;;;18.88;;
26965;SDS011;14522;52.068;4.414;2023-02-15T09:00:47;29.60;;;16.77;;
26965;SDS011;14522;52.068;4.414;2023-02-15T09:03:13;28.35;;;17.02;;
26965;SDS011;14522;52.068;4.414;2023-02-15T09:05:40;34.58;;;19.30;;
26965;SDS011;14522;52.068;4.414;2023-02-15T09:08:06;29.05;;;18.15;;
26965;SDS011;14522;52.068;4.414;2023-02-15T09:10:33;30.52;;;18.77;;
26965;SDS011;14522;52.068;4.414;2023-02-15T09:12:59;22.95;;;14.50;;
26965;SDS011;14522;52.068;4.414;2023-02-15T09:15:25;42.53;;;22.38;;
26965;SDS011;14522;52.068;4.414;2023-02-15T09:17:52;35.70;;;20.55;;
26965;SDS011;14522;52.068;4.414;2023-02-15T09:20:18;34.17;;;19.67;;
26965;SDS011;14522;52.068;4.414;2023-02-15T09:22:45;38.67;;;21.63;;
26965;SDS011;14522;52.068;4.414;2023-02-15T09:25:11;36.03;;;22.33;;
26965;SDS011;14522;52.068;4.414;2023-02-15T09:27:39;41.15;;;23.83;;
26965;SDS011;14522;52.068;4.414;2023-02-15T09:30:07;40.03;;;24.27;;
26965;SDS011;14522;52.068;4.414;2023-02-15T09:32:33;49.90;;;26.35;;
26965;SDS011;14522;52.068;4.414;2023-02-15T09:35:00;34.40;;;19.27;;
26965;SDS011;14522;52.068;4.414;2023-02-15T09:37:26;43.13;;;26.38;;
26965;SDS011;14522;52.068;4.414;2023-02-15T09:39:53;45.10;;;26.73;;
26965;SDS011;14522;52.068;4.414;2023-02-15T09:42:36;39.78;;;22.40;;
26965;SDS011;14522;52.068;4.414;2023-02-15T09:57:30;58.08;;;29.27;;
26965;SDS011;14522;52.068;4.414;2023-02-15T10:31:30;52.28;;;28.35;;
26965;SDS011;14522;52.068;4.414;2023-02-15T10:34:15;52.85;;;27.95;;
26965;SDS011;14522;52.068;4.414;2023-02-15T10:46:53;49.65;;;28.80;;
26965;SDS011;14522;52.068;4.414;2023-02-15T10:51:57;46.90;;;27.42;;
26965;SDS011;14522;52.068;4.414;2023-02-15T10:57:02;50.15;;;25.63;;
26965;SDS011;14522;52.068;4.414;2023-02-15T10:59:36;49.40;;;29.20;;
26965;SDS011;14522;52.068;4.414;2023-02-15T11:05:16;45.20;;;27.83;;
26965;SDS011;14522;52.068;4.414;2023-02-15T11:07:46;49.05;;;28.35;;
26965;SDS011;14522;52.068;4.414;2023-02-15T11:10:21;52.05;;;29.38;;
26965;SDS011;14522;52.068;4.414;2023-02-15T11:12:49;58.17;;;29.08;;
26965;SDS011;14522;52.068;4.414;2023-02-15T11:15:19;50.17;;;29.67;;
26965;SDS011;14522;52.068;4.414;2023-02-15T11:18:11;56.20;;;29.93;;
26965;SDS011;14522;52.068;4.414;2023-02-15T11:20:44;36.92;;;20.42;;
26965;SDS011;14522;52.068;4.414;2023-02-15T11:23:13;56.35;;;27.27;;
26965;SDS011;14522;52.068;4.414;2023-02-15T11:25:45;51.85;;;28.42;;
26965;SDS011;14522;52.068;4.414;2023-02-15T11:28:27;46.83;;;27.20;;
26965;SDS011;14522;52.068;4.414;2023-02-15T11:30:56;55.50;;;30.23;;
26965;SDS011;14522;52.068;4.414;2023-02-15T11:33:25;56.25;;;29.80;;
26965;SDS011;14522;52.068;4.414;2023-02-15T11:36:03;50.60;;;29.02;;
26965;SDS011;14522;52.068;4.414;2023-02-15T11:38:32;51.78;;;29.02;;
26965;SDS011;14522;52.068;4.414;2023-02-15T11:41:03;48.65;;;26.55;;
26965;SDS011;14522;52.068;4.414;2023-02-15T11:43:35;55.45;;;27.27;;
26965;SDS011;14522;52.068;4.414;2023-02-15T11:46:04;43.95;;;24.23;;
26965;SDS011;14522;52.068;4.414;2023-02-15T11:48:31;50.10;;;28.67;;
26965;SDS011;14522;52.068;4.414;2023-02-15T11:50:58;47.35;;;26.38;;
26965;SDS011;14522;52.068;4.414;2023-02-15T11:53:25;52.00;;;28.83;;
26965;SDS011;14522;52.068;4.414;2023-02-15T11:55:54;37.25;;;19.08;;
26965;SDS011;14522;52.068;4.414;2023-02-15T12:01:14;51.45;;;27.75;;
26965;SDS011;14522;52.068;4.414;2023-02-15T12:06:18;51.78;;;29.55;;
26965;SDS011;14522;52.068;4.414;2023-02-15T12:08:48;49.00;;;27.05;;
26965;SDS011;14522;52.068;4.414;2023-02-15T12:11:26;48.03;;;27.20;;
26965;SDS011;14522;52.068;4.414;2023-02-15T12:13:56;45.50;;;24.52;;
26965;SDS011;14522;52.068;4.414;2023-02-15T12:16:23;50.30;;;26.92;;
26965;SDS011;14522;52.068;4.414;2023-02-15T12:18:50;50.70;;;27.75;;
26965;SDS011;14522;52.068;4.414;2023-02-15T12:21:28;48.40;;;28.20;;
26965;SDS011;14522;52.068;4.414;2023-02-15T12:23:57;49.97;;;28.58;;
26965;SDS011;14522;52.068;4.414;2023-02-15T12:26:27;49.72;;;28.40;;
26965;SDS011;14522;52.068;4.414;2023-02-15T12:28:54;52.70;;;28.00;;
26965;SDS011;14522;52.068;4.414;2023-02-15T12:31:36;47.55;;;27.38;;
26965;SDS011;14522;52.068;4.414;2023-02-15T12:37:02;46.27;;;26.90;;
26965;SDS011;14522;52.068;4.414;2023-02-15T12:39:33;50.38;;;28.15;;
26965;SDS011;14522;52.068;4.414;2023-02-15T12:42:16;53.90;;;29.55;;
26965;SDS011;14522;52.068;4.414;2023-02-15T12:45:02;51.45;;;27.58;;
26965;SDS011;14522;52.068;4.414;2023-02-15T12:47:30;50.80;;;26.27;;
26965;SDS011;14522;52.068;4.414;2023-02-15T12:52:37;51.53;;;27.60;;
26965;SDS011;14522;52.068;4.414;2023-02-15T12:55:18;51.33;;;27.83;;
26965;SDS011;14522;52.068;4.414;2023-02-15T12:57:45;45.85;;;26.75;;
26965;SDS011;14522;52.068;4.414;2023-02-15T13:02:50;44.88;;;24.63;;
26965;SDS011;14522;52.068;4.414;2023-02-15T13:07:48;45.45;;;25.23;;
26965;SDS011;14522;52.068;4.414;2023-02-15T13:10:26;50.13;;;26.60;;
26965;SDS011;14522;52.068;4.414;2023-02-15T13:12:53;48.30;;;27.23;;
26965;SDS011;14522;52.068;4.414;2023-02-15T13:15:28;48.50;;;28.10;;
26965;SDS011;14522;52.068;4.414;2023-02-15T13:17:56;49.70;;;26.83;;
26965;SDS011;14522;52.068;4.414;2023-02-15T13:20:23;46.60;;;26.10;;
26965;SDS011;14522;52.068;4.414;2023-02-15T13:23:00;49.20;;;27.00;;
26965;SDS011;14522;52.068;4.414;2023-02-15T13:25:28;48.00;;;26.33;;
26965;SDS011;14522;52.068;4.414;2023-02-15T13:27:58;48.95;;;27.05;;
26965;SDS011;14522;52.068;4.414;2023-02-15T13:33:05;42.40;;;23.88;;
26965;SDS011;14522;52.068;4.414;2023-02-15T13:35:36;49.90;;;26.55;;
26965;SDS011;14522;52.068;4.414;2023-02-15T13:38:12;45.40;;;25.42;;
26965;SDS011;14522;52.068;4.414;2023-02-15T13:48:40;47.97;;;28.83;;
26965;SDS011;14522;52.068;4.414;2023-02-15T13:53:47;50.58;;;28.67;;
26965;SDS011;14522;52.068;4.414;2023-02-15T14:06:33;52.03;;;27.13;;
26965;SDS011;14522;52.068;4.414;2023-02-15T14:19:46;53.53;;;28.08;;
26965;SDS011;14522;52.068;4.414;2023-02-15T14:22:33;51.88;;;27.63;;
26965;SDS011;14522;52.068;4.414;2023-02-15T14:27:54;55.50;;;28.80;;
26965;SDS011;14522;52.068;4.414;2023-02-15T14:32:49;49.00;;;27.13;;
26965;SDS011;14522;52.068;4.414;2023-02-15T14:35:19;54.08;;;29.25;;
26965;SDS011;14522;52.068;4.414;2023-02-15T14:37:51;51.97;;;28.00;;
26965;SDS011;14522;52.068;4.414;2023-02-15T14:40:32;47.40;;;27.25;;
26965;SDS011;14522;52.068;4.414;2023-02-15T14:48:45;50.45;;;29.02;;
26965;SDS011;14522;52.068;4.414;2023-02-15T14:53:58;50.35;;;26.65;;
26965;SDS011;14522;52.068;4.414;2023-02-15T14:56:25;51.33;;;28.60;;
26965;SDS011;14522;52.068;4.414;2023-02-15T15:01:25;49.55;;;27.42;;
26965;SDS011;14522;52.068;4.414;2023-02-15T15:03:53;48.58;;;27.30;;
26965;SDS011;14522;52.068;4.414;2023-02-15T15:06:24;46.83;;;27.75;;
26965;SDS011;14522;52.068;4.414;2023-02-15T15:08:53;54.03;;;27.58;;
26965;SDS011;14522;52.068;4.414;2023-02-15T15:14:08;45.10;;;26.08;;
26965;SDS011;14522;52.068;4.414;2023-02-15T15:19:03;46.10;;;25.98;;
26965;SDS011;14522;52.068;4.414;2023-02-15T15:24:57;48.55;;;26.63;;
26965;SDS011;14522;52.068;4.414;2023-02-15T15:29:49;53.70;;;28.45;;
26965;SDS011;14522;52.068;4.414;2023-02-15T15:32:15;48.92;;;26.83;;
26965;SDS011;14522;52.068;4.414;2023-02-15T15:35:07;48.05;;;27.90;;
26965;SDS011;14522;52.068;4.414;2023-02-15T15:40:29;55.45;;;28.25;;
26965;SDS011;14522;52.068;4.414;2023-02-15T15:45:49;52.35;;;28.30;;
26965;SDS011;14522;52.068;4.414;2023-02-15T15:48:35;53.70;;;28.52;;
26965;SDS011;14522;52.068;4.414;2023-02-15T15:51:12;51.75;;;29.13;;
26965;SDS011;14522;52.068;4.414;2023-02-15T15:56:10;52.88;;;28.90;;
26965;SDS011;14522;52.068;4.414;2023-02-15T15:58:40;54.70;;;28.80;;
26965;SDS011;14522;52.068;4.414;2023-02-15T16:01:08;50.80;;;28.08;;
26965;SDS011;14522;52.068;4.414;2023-02-15T16:03:35;50.40;;;27.00;;
26965;SDS011;14522;52.068;4.414;2023-02-15T16:06:02;53.35;;;28.55;;
26965;SDS011;14522;52.068;4.414;2023-02-15T16:08:30;56.38;;;28.52;;
26965;SDS011;14522;52.068;4.414;2023-02-15T16:10:57;47.47;;;27.95;;
26965;SDS011;14522;52.068;4.414;2023-02-15T16:13:24;52.85;;;29.02;;
26965;SDS011;14522;52.068;4.414;2023-02-15T16:15:53;51.60;;;29.20;;
26965;SDS011;14522;52.068;4.414;2023-02-15T16:18:24;49.20;;;27.73;;
26965;SDS011;14522;52.068;4.414;2023-02-15T16:20:55;50.10;;;27.20;;
26965;SDS011;14522;52.068;4.414;2023-02-15T16:23:30;53.25;;;27.55;;
26965;SDS011;14522;52.068;4.414;2023-02-15T16:28:35;47.38;;;28.15;;
26965;SDS011;14522;52.068;4.414;2023-02-15T16:31:06;48.83;;;27.08;;
26965;SDS011;14522;52.068;4.414;2023-02-15T16:33:34;51.20;;;28.42;;
26965;SDS011;14522;52.068;4.414;2023-02-15T16:36:01;48.60;;;27.05;;
26965;SDS011;14522;52.068;4.414;2023-02-15T16:41:06;48.80;;;27.23;;
26965;SDS011;14522;52.068;4.414;2023-02-15T16:43:32;48.92;;;26.83;;
26965;SDS011;14522;52.068;4.414;2023-02-15T16:46:06;53.83;;;27.45;;
26965;SDS011;14522;52.068;4.414;2023-02-15T16:48:33;51.67;;;27.73;;
26965;SDS011;14522;52.068;4.414;2023-02-15T16:51:05;45.05;;;26.27;;
26965;SDS011;14522;52.068;4.414;2023-02-15T16:53:31;52.00;;;28.17;;
26965;SDS011;14522;52.068;4.414;2023-02-15T16:55:59;48.88;;;27.00;;
26965;SDS011;14522;52.068;4.414;2023-02-15T16:58:27;52.10;;;28.52;;
26965;SDS011;14522;52.068;4.414;2023-02-15T17:00:58;47.58;;;27.60;;
26965;SDS011;14522;52.068;4.414;2023-02-15T17:03:26;49.75;;;27.65;;
26965;SDS011;14522;52.068;4.414;2023-02-15T17:05:56;52.15;;;29.05;;
26965;SDS011;14522;52.068;4.414;2023-02-15T17:08:25;53.15;;;26.45;;
26965;SDS011;14522;52.068;4.414;2023-02-15T17:13:37;51.60;;;28.63;;
26965;SDS011;14522;52.068;4.414;2023-02-15T17:18:32;46.53;;;26.20;;
26965;SDS011;14522;52.068;4.414;2023-02-15T17:21:08;46.25;;;27.65;;
26965;SDS011;14522;52.068;4.414;2023-02-15T17:23:40;51.03;;;28.40;;
26965;SDS011;14522;52.068;4.414;2023-02-15T17:26:24;47.00;;;26.67;;
26965;SDS011;14522;52.068;4.414;2023-02-15T17:28:51;49.80;;;27.48;;
26965;SDS011;14522;52.068;4.414;2023-02-15T17:31:19;50.67;;;27.48;;
26965;SDS011;14522;52.068;4.414;2023-02-15T17:33:46;53.28;;;27.42;;
26965;SDS011;14522;52.068;4.414;2023-02-15T17:36:20;52.53;;;26.85;;
26965;SDS011;14522;52.068;4.414;2023-02-15T17:43:50;48.80;;;26.95;;
26965;SDS011;14522;52.068;4.414;2023-02-15T17:46:16;47.67;;;25.70;;
26965;SDS011;14522;52.068;4.414;2023-02-15T17:48:46;49.30;;;25.83;;
26965;SDS011;14522;52.068;4.414;2023-02-15T17:51:13;52.78;;;25.25;;
26965;SDS011;14522;52.068;4.414;2023-02-15T17:53:40;49.65;;;26.10;;
26965;SDS011;14522;52.068;4.414;2023-02-15T17:56:27;44.33;;;24.30;;